createdAt,value
2019-03-02T00:03:56.229Z,66.92
2019-03-02T00:06:43.943Z,66.88
2019-03-02T00:09:31.844Z,66.70
2019-03-02T00:12:01.714Z,66.89
2019-03-02T00:14:30.105Z,66.43
2019-03-02T00:20:30.432Z,65.41
2019-03-02T00:23:18.851Z,66.65
2019-03-02T00:25:48.206Z,67.14
2019-03-02T00:28:36.397Z,66.54
2019-03-02T00:31:05.981Z,66.21
2019-03-02T00:33:34.396Z,66.27
2019-03-02T00:36:02.796Z,66.52
2019-03-02T00:38:31.201Z,66.67
2019-03-02T00:40:59.595Z,66.38
2019-03-02T00:43:28.105Z,66.80
2019-03-02T00:49:03.066Z,66.37
2019-03-02T00:51:50.581Z,66.04
2019-03-02T00:54:38.098Z,66.04
2019-03-02T00:57:06.489Z,66.82
2019-03-02T01:04:42.580Z,66.14
2019-03-02T01:09:58.422Z,66.03
2019-03-02T01:12:46.067Z,65.91
2019-03-02T01:15:54.379Z,64.99
2019-03-02T01:18:22.787Z,65.27
2019-03-02T01:23:38.633Z,65.69
2019-03-02T01:26:07.024Z,66.26
2019-03-02T01:28:54.670Z,66.34
2019-03-02T01:31:23.091Z,65.94
2019-03-02T01:33:51.510Z,66.19
2019-03-02T01:36:19.906Z,66.13
2019-03-02T01:38:50.706Z,65.68
2019-03-02T01:41:19.087Z,65.26
2019-03-02T01:43:48.569Z,65.39
2019-03-02T01:46:37.537Z,65.24
2019-03-02T01:49:06.331Z,65.57
2019-03-02T01:51:54.704Z,65.29
2019-03-02T01:54:24.104Z,64.79
2019-03-02T01:57:13.775Z,65.37
2019-03-02T02:00:00.984Z,65.31
2019-03-02T02:02:48.500Z,65.42
2019-03-02T02:08:32.367Z,65.11
2019-03-02T02:11:00.772Z,65.28
2019-03-02T02:16:16.621Z,65.71
2019-03-02T02:18:45.015Z,66.22
2019-03-02T02:21:32.536Z,66.05
2019-03-02T02:24:00.943Z,65.73
2019-03-02T02:26:48.459Z,65.28
2019-03-02T02:29:16.865Z,65.58
2019-03-02T02:31:46.454Z,65.34
2019-03-02T02:34:21.443Z,65.34
2019-03-02T02:36:45.839Z,65.13
2019-03-02T02:39:54.155Z,65.37
2019-03-02T02:45:53.663Z,65.66
2019-03-02T02:48:39.646Z,66.31
2019-03-02T02:51:27.123Z,65.98
2019-03-02T02:53:55.529Z,66.18
2019-03-02T02:56:43.043Z,66.51
2019-03-02T02:59:11.439Z,66.63
2019-03-02T03:01:59.095Z,67.31
2019-03-02T03:04:27.484Z,66.86
2019-03-02T03:07:15.012Z,66.92
2019-03-02T03:12:38.003Z,67.75
2019-03-02T03:15:46.316Z,68.16
2019-03-02T03:18:33.828Z,68.06
2019-03-02T03:21:02.257Z,68.19
2019-03-02T03:23:30.659Z,68.58
2019-03-02T03:26:18.176Z,68.10
2019-03-02T03:28:46.576Z,67.61
2019-03-02T03:31:23.198Z,67.54
2019-03-02T03:33:47.303Z,67.23
2019-03-02T03:36:15.223Z,66.96
2019-03-02T03:38:43.617Z,67.12
2019-03-02T03:41:51.939Z,67.04
2019-03-02T03:44:25.647Z,66.54
2019-03-02T03:46:50.447Z,66.03
2019-03-02T03:49:18.845Z,66.39
2019-03-02T03:51:47.249Z,66.03
2019-03-02T03:54:34.888Z,66.50
2019-03-02T03:59:58.680Z,66.27
2019-03-02T04:05:07.115Z,65.71
2019-03-02T04:07:51.744Z,65.81
2019-03-02T04:10:26.014Z,65.77
2019-03-02T04:12:51.599Z,65.80
2019-03-02T04:15:59.929Z,66.19
2019-03-02T04:19:06.909Z,66.36
2019-03-02T04:22:15.464Z,65.97
2019-03-02T04:24:43.866Z,66.04
2019-03-02T04:27:15.498Z,66.01
2019-03-02T04:38:00.717Z,65.27
2019-03-02T04:40:29.109Z,65.58
2019-03-02T04:42:58.188Z,65.40
2019-03-02T04:45:26.583Z,65.97
2019-03-02T04:48:14.322Z,65.48
2019-03-02T04:50:42.740Z,65.40
2019-03-02T04:53:11.126Z,64.73
2019-03-02T04:58:46.962Z,65.16
2019-03-02T05:01:16.217Z,65.12
2019-03-02T05:03:44.593Z,64.97
2019-03-02T05:09:48.598Z,64.36
2019-03-02T05:12:36.687Z,63.90
2019-03-02T05:15:44.986Z,63.76
2019-03-02T05:18:14.816Z,64.47
2019-03-02T05:20:43.505Z,64.10
2019-03-02T05:23:31.532Z,64.35
2019-03-02T05:26:20.396Z,64.14
2019-03-02T05:29:07.909Z,63.55
2019-03-02T05:31:55.554Z,62.76
2019-03-02T05:34:23.946Z,62.65
2019-03-02T05:42:00.404Z,62.37
2019-03-02T05:44:28.789Z,61.94
2019-03-02T05:46:57.785Z,62.73
2019-03-02T05:49:27.297Z,62.76
2019-03-02T05:51:55.699Z,62.69
2019-03-02T05:54:24.440Z,62.61
2019-03-02T05:56:52.842Z,63.34
2019-03-02T05:59:22.786Z,63.68
2019-03-02T06:01:51.358Z,63.41
2019-03-02T06:04:22.061Z,64.10
2019-03-02T06:07:09.119Z,64.44
2019-03-02T06:09:37.516Z,63.87
2019-03-02T06:12:05.918Z,64.26
2019-03-02T06:14:53.430Z,64.62
2019-03-02T06:17:21.835Z,64.70
2019-03-02T06:20:09.480Z,64.51
2019-03-02T06:23:17.792Z,65.67
2019-03-02T06:31:07.414Z,65.24
2019-03-02T06:34:16.726Z,64.85
2019-03-02T06:36:46.026Z,64.89
2019-03-02T06:39:15.979Z,65.38
2019-03-02T06:42:06.156Z,65.26
2019-03-02T06:47:26.296Z,64.71
2019-03-02T06:49:59.096Z,65.18
2019-03-02T06:52:26.130Z,65.01
2019-03-02T06:55:14.195Z,64.64
2019-03-02T06:57:46.154Z,64.27
2019-03-02T07:00:32.055Z,63.86
2019-03-02T07:03:19.796Z,63.92
2019-03-02T07:08:36.376Z,63.74
2019-03-02T07:11:05.744Z,63.42
2019-03-02T07:13:34.151Z,63.14
2019-03-02T07:16:21.920Z,63.86
2019-03-02T07:19:09.433Z,63.57
2019-03-02T07:21:57.663Z,63.94
2019-03-02T07:24:29.498Z,63.59
2019-03-02T07:27:16.316Z,63.70
2019-03-02T07:29:44.719Z,63.04
2019-03-02T07:32:32.367Z,63.58
2019-03-02T07:35:00.775Z,63.42
2019-03-02T07:37:48.286Z,62.82
2019-03-02T07:40:56.610Z,62.70
2019-03-02T07:43:46.385Z,62.77
2019-03-02T07:46:14.243Z,62.32
2019-03-02T07:49:01.760Z,62.50
2019-03-02T07:54:17.613Z,62.48
2019-03-02T07:56:46.006Z,61.59
2019-03-02T07:59:14.438Z,61.62
2019-03-02T08:02:02.216Z,61.90
2019-03-02T08:04:30.623Z,61.19
2019-03-02T08:07:18.165Z,61.70
2019-03-02T08:09:46.598Z,61.69
2019-03-02T08:12:34.132Z,61.65
2019-03-02T08:15:24.250Z,61.72
2019-03-02T08:18:11.048Z,61.76
2019-03-02T08:20:39.499Z,61.01
2019-03-02T08:31:35.251Z,60.85
2019-03-02T08:34:05.994Z,61.41
2019-03-02T08:39:21.252Z,61.25
2019-03-02T08:41:49.675Z,60.49
2019-03-02T08:47:11.383Z,60.57
2019-03-02T08:49:59.064Z,60.47
2019-03-02T08:52:46.733Z,60.97
2019-03-02T08:55:35.077Z,61.16
2019-03-02T08:58:04.662Z,61.42
2019-03-02T09:01:15.358Z,61.29
2019-03-02T09:04:03.255Z,60.95
2019-03-02T09:06:34.795Z,61.63
2019-03-02T09:11:44.507Z,60.31
2019-03-02T09:14:31.162Z,60.51
2019-03-02T09:16:59.580Z,60.91
2019-03-02T09:19:28.012Z,61.02
2019-03-02T09:21:56.427Z,61.55
2019-03-02T09:26:58.834Z,61.84
2019-03-02T09:29:46.361Z,61.58
2019-03-02T09:32:34.044Z,62.04
2019-03-02T09:35:02.486Z,62.37
2019-03-02T09:37:30.953Z,61.89
2019-03-02T09:39:59.367Z,63.03
2019-03-02T09:42:47.016Z,63.47
2019-03-02T09:45:55.338Z,64.27
2019-03-02T09:48:43.045Z,64.41
2019-03-02T09:51:11.515Z,64.74
2019-03-02T09:53:39.950Z,65.06
2019-03-02T09:56:08.459Z,65.60
2019-03-02T09:58:36.967Z,65.61
2019-03-02T10:01:24.727Z,65.66
2019-03-02T10:03:53.117Z,66.82
2019-03-02T10:06:21.759Z,66.51
2019-03-02T10:08:51.763Z,66.42
2019-03-02T10:11:20.276Z,66.95
2019-03-02T10:13:48.668Z,67.19
2019-03-02T10:16:36.189Z,66.67
2019-03-02T10:19:25.055Z,66.28
2019-03-02T10:22:13.204Z,65.50
2019-03-02T10:25:00.743Z,66.05
2019-03-02T10:27:29.135Z,65.45
2019-03-02T10:30:16.782Z,64.97
2019-03-02T10:33:04.465Z,64.95
2019-03-02T10:35:32.865Z,64.06
2019-03-02T10:41:08.043Z,59.89
2019-03-02T10:43:55.702Z,59.21
2019-03-02T10:46:24.108Z,57.32
2019-03-02T10:54:14.059Z,57.18
2019-03-02T10:57:01.804Z,55.26
2019-03-02T10:59:51.769Z,53.42
2019-03-02T11:02:38.816Z,53.79
2019-03-02T11:05:47.148Z,55.70
2019-03-02T11:08:34.667Z,56.28
2019-03-02T11:11:25.670Z,57.90
2019-03-02T11:17:22.902Z,57.67
2019-03-02T11:20:08.739Z,57.47
2019-03-02T11:23:19.737Z,58.25
2019-03-02T11:26:06.305Z,58.51
2019-03-02T11:28:54.081Z,58.05
2019-03-02T11:34:18.288Z,56.91
2019-03-02T11:37:06.271Z,56.77
2019-03-02T11:39:54.223Z,56.56
2019-03-02T11:42:41.793Z,56.22
2019-03-02T11:45:48.564Z,54.73
2019-03-02T11:48:36.084Z,54.96
2019-03-02T11:54:18.804Z,54.95
2019-03-02T11:57:07.987Z,54.22
2019-03-02T11:59:55.570Z,54.99
2019-03-02T12:03:02.781Z,55.06
2019-03-02T12:05:51.331Z,56.47
2019-03-02T12:08:38.852Z,55.02
2019-03-02T12:11:26.366Z,54.69
2019-03-02T12:14:13.946Z,54.28
2019-03-02T12:17:20.720Z,53.65
2019-03-02T12:23:18.104Z,52.84
2019-03-02T12:26:07.879Z,53.07
2019-03-02T12:28:54.867Z,53.56
2019-03-02T12:32:03.992Z,54.16
2019-03-02T12:34:50.924Z,53.97
2019-03-02T12:37:38.450Z,55.15
2019-03-02T12:40:46.745Z,55.50
2019-03-02T12:46:16.759Z,55.78
2019-03-02T12:54:53.213Z,56.48
2019-03-02T12:57:41.480Z,55.63
2019-03-02T13:00:50.781Z,55.18
2019-03-02T13:03:57.568Z,55.39
2019-03-02T13:06:46.276Z,55.49
2019-03-02T13:09:36.847Z,55.90
2019-03-02T13:15:12.649Z,55.64
2019-03-02T13:18:00.422Z,55.79
2019-03-02T13:20:47.932Z,55.19
2019-03-02T13:26:14.842Z,55.05
2019-03-02T13:29:02.428Z,54.36
2019-03-02T13:32:09.197Z,54.59
2019-03-02T13:35:15.976Z,55.59
2019-03-02T13:38:03.507Z,55.31
2019-03-02T13:40:51.032Z,55.10
2019-03-02T13:46:52.466Z,56.36
2019-03-02T13:52:34.767Z,56.92
2019-03-02T14:01:11.496Z,56.61
2019-03-02T14:09:29.393Z,58.60
2019-03-02T14:12:19.752Z,59.02
2019-03-02T14:17:41.876Z,57.70
2019-03-02T14:25:44.183Z,56.95
2019-03-02T14:28:34.778Z,57.08
2019-03-02T14:31:20.953Z,56.82
2019-03-02T14:36:57.553Z,56.59
2019-03-02T14:39:45.079Z,56.72
2019-03-02T14:42:51.845Z,56.80
2019-03-02T14:45:39.370Z,56.94
2019-03-02T14:48:27.114Z,56.41
2019-03-02T14:51:16.957Z,57.07
2019-03-02T14:56:53.385Z,57.55
2019-03-02T15:00:00.245Z,57.92
2019-03-02T15:02:49.066Z,57.58
2019-03-02T15:05:37.007Z,57.94
2019-03-02T15:08:24.523Z,58.39
2019-03-02T15:11:13.540Z,58.14
2019-03-02T15:14:02.517Z,57.72
2019-03-02T15:17:12.236Z,57.75
2019-03-02T15:19:59.015Z,58.08
2019-03-02T15:22:46.531Z,58.23
2019-03-02T15:25:34.053Z,58.91
2019-03-02T15:28:28.940Z,58.88
2019-03-02T15:31:30.070Z,59.21
2019-03-02T15:34:17.589Z,59.78
2019-03-02T15:37:05.118Z,59.67
2019-03-02T15:39:53.496Z,59.93
2019-03-02T15:42:42.589Z,60.96
2019-03-02T15:45:31.141Z,60.63
2019-03-02T15:48:18.657Z,60.68
2019-03-02T15:56:39.621Z,60.11
2019-03-02T15:59:27.136Z,60.74
2019-03-02T16:07:48.367Z,61.32
2019-03-02T16:10:35.884Z,61.81
2019-03-02T16:13:24.483Z,61.34
2019-03-02T16:24:06.784Z,61.55
2019-03-02T16:26:54.390Z,61.65
2019-03-02T16:32:30.936Z,61.28
2019-03-02T16:35:21.040Z,61.49
2019-03-02T16:38:07.707Z,61.64
2019-03-02T16:40:58.188Z,61.84
2019-03-02T16:43:44.469Z,62.44
2019-03-02T16:49:27.001Z,62.91
2019-03-02T16:55:29.733Z,62.37
2019-03-02T16:58:36.765Z,62.07
2019-03-02T17:01:45.083Z,62.23
2019-03-02T17:04:32.602Z,62.66
2019-03-02T17:13:32.149Z,63.66
2019-03-02T17:19:28.562Z,63.93
2019-03-02T17:25:26.860Z,64.20
2019-03-02T17:28:14.745Z,64.48
2019-03-02T17:31:03.813Z,64.70
2019-03-02T17:36:26.669Z,65.66
2019-03-02T17:39:14.197Z,65.36
2019-03-02T17:42:01.708Z,65.85
2019-03-02T17:52:54.544Z,66.45
2019-03-02T17:58:50.172Z,67.05
2019-03-02T18:01:37.686Z,67.55
2019-03-02T18:04:25.470Z,68.53
2019-03-02T18:12:41.493Z,68.14
2019-03-02T18:15:49.823Z,68.50
2019-03-02T18:18:18.223Z,68.93
2019-03-02T18:21:05.881Z,68.91
2019-03-02T18:23:34.296Z,68.78
2019-03-02T18:26:02.713Z,69.50
2019-03-02T18:28:31.124Z,69.87
2019-03-02T18:31:20.233Z,69.72
2019-03-02T18:36:49.967Z,69.33
2019-03-02T18:41:54.039Z,69.64
2019-03-02T18:44:22.601Z,69.82
2019-03-02T18:47:11.184Z,70.12
2019-03-02T18:49:58.708Z,70.33
2019-03-02T18:55:16.209Z,70.88
2019-03-02T18:58:03.855Z,70.39
2019-03-02T19:03:27.283Z,70.50
2019-03-02T19:05:55.697Z,71.09
2019-03-02T19:08:43.434Z,71.02
2019-03-02T19:11:11.863Z,71.15
2019-03-02T19:13:40.683Z,71.01
2019-03-02T19:16:10.414Z,71.08
2019-03-02T19:18:58.057Z,71.29
2019-03-02T19:21:26.476Z,70.77
2019-03-02T19:24:14.133Z,70.65
2019-03-02T19:27:01.652Z,70.86
2019-03-02T19:29:49.305Z,70.56
2019-03-02T19:35:45.070Z,70.56
2019-03-02T19:38:13.470Z,70.64
2019-03-02T19:40:41.882Z,70.78
2019-03-02T19:46:17.075Z,70.69
2019-03-02T19:51:32.930Z,71.12
2019-03-02T19:57:27.235Z,70.98
2019-03-02T20:00:14.771Z,70.33
2019-03-02T20:03:02.418Z,70.56
2019-03-02T20:05:30.834Z,70.76
2019-03-02T20:07:59.246Z,71.14
2019-03-02T20:10:46.974Z,71.02
2019-03-02T20:13:15.407Z,70.88
2019-03-02T20:16:03.268Z,70.50
2019-03-02T20:18:31.657Z,70.12
2019-03-02T20:21:00.067Z,69.99
2019-03-02T20:23:47.588Z,69.77
2019-03-02T20:28:49.685Z,69.72
2019-03-02T20:31:18.385Z,69.96
2019-03-02T20:34:06.033Z,70.16
2019-03-02T20:36:34.441Z,70.87
2019-03-02T20:41:51.928Z,70.60
2019-03-02T20:44:39.476Z,70.58
2019-03-02T20:47:26.993Z,71.32
2019-03-02T20:53:02.091Z,73.64
2019-03-02T20:55:30.520Z,74.06
2019-03-02T20:57:58.944Z,74.31
2019-03-02T21:01:07.276Z,74.27
2019-03-02T21:03:54.793Z,73.93
2019-03-02T21:09:37.682Z,74.12
2019-03-02T21:14:59.581Z,74.99
2019-03-02T21:17:29.442Z,74.92
2019-03-02T21:19:58.118Z,75.14
2019-03-02T21:22:26.529Z,75.27
2019-03-02T21:25:14.185Z,76.01
2019-03-02T21:27:42.621Z,76.19
2019-03-02T21:33:32.468Z,78.54
2019-03-02T21:38:48.312Z,79.74
2019-03-02T21:41:36.033Z,79.91
2019-03-02T21:46:51.877Z,81.13
2019-03-02T21:49:39.390Z,81.48
2019-03-02T21:52:27.040Z,81.60
2019-03-02T21:55:14.560Z,81.35
2019-03-02T21:58:02.214Z,81.00
2019-03-02T22:00:49.948Z,81.66
2019-03-02T22:03:18.404Z,81.84
2019-03-02T22:06:26.724Z,81.65
2019-03-02T22:08:55.138Z,82.05
2019-03-02T22:11:42.790Z,82.36
2019-03-02T22:14:11.195Z,82.08
2019-03-02T22:16:39.602Z,82.79
2019-03-02T22:19:27.133Z,84.00
2019-03-02T22:21:55.531Z,85.35
2019-03-02T22:27:16.879Z,85.83
2019-03-02T22:30:25.264Z,86.58
2019-03-02T22:33:33.591Z,87.39
2019-03-02T22:36:01.989Z,87.58
2019-03-02T22:38:30.397Z,88.12
2019-03-02T22:43:49.253Z,89.33
2019-03-02T22:46:17.652Z,89.72
2019-03-02T22:48:46.063Z,89.34
2019-03-02T22:51:14.472Z,89.27
2019-03-02T22:54:01.996Z,89.04
2019-03-02T22:56:49.505Z,89.16
2019-03-02T22:59:17.907Z,89.36
2019-03-02T23:02:26.269Z,89.81
2019-03-02T23:05:13.923Z,89.95
2019-03-02T23:08:01.591Z,90.42
2019-03-02T23:10:29.990Z,90.01
2019-03-02T23:13:17.888Z,90.66
2019-03-02T23:16:05.423Z,90.34
2019-03-02T23:18:33.828Z,90.37
2019-03-02T23:24:28.168Z,91.80
2019-03-02T23:26:56.529Z,91.57
2019-03-02T23:29:44.184Z,91.77
2019-03-02T23:32:31.697Z,90.95
2019-03-02T23:35:00.163Z,91.20
2019-03-02T23:37:47.819Z,92.52
2019-03-02T23:40:56.136Z,91.98
2019-03-02T23:43:24.539Z,92.05
2019-03-02T23:46:12.191Z,93.17
2019-03-02T23:48:40.583Z,93.44
2019-03-02T23:51:08.993Z,93.90
2019-03-02T23:54:17.303Z,93.45
2019-03-02T23:57:04.811Z,93.82
